createdAt,value
2023-02-03T00:09:52.362Z,22.49755859375
2023-02-03T00:19:52.070Z,22.49755859375
2023-02-03T00:29:52.023Z,22.59521484375
2023-02-03T00:39:51.986Z,22.802734375
2023-02-03T00:49:51.864Z,22.998046875
2023-02-03T00:59:51.837Z,23.095703125
2023-02-03T01:09:51.709Z,23.095703125
2023-02-03T01:19:51.653Z,24.49951171875
2023-02-03T01:29:51.642Z,26.0009765625
2023-02-03T01:39:51.501Z,26.3916015625
2023-02-03T01:49:51.407Z,24.59716796875
2023-02-03T01:59:51.508Z,24.30419921875
2023-02-03T02:09:51.299Z,23.49853515625
2023-02-03T02:19:51.173Z,23.7060546875
2023-02-03T02:29:51.227Z,23.20556640625
2023-02-03T02:39:51.059Z,22.802734375
2023-02-03T02:49:50.958Z,22.900390625
2023-02-03T02:59:51.011Z,24.30419921875
2023-02-03T03:09:50.820Z,24.59716796875
2023-02-03T03:19:50.732Z,24.8046875
2023-02-03T03:29:50.678Z,24.40185546875
2023-02-03T03:39:50.632Z,24.40185546875
2023-02-03T03:49:50.532Z,24.0966796875
2023-02-03T03:59:51.482Z,24.1943359375
2023-02-03T04:09:50.472Z,23.7060546875
2023-02-03T04:19:50.323Z,23.30322265625
2023-02-03T04:29:50.498Z,23.095703125
2023-02-03T04:39:50.195Z,22.900390625
2023-02-03T04:49:50.118Z,22.998046875
2023-02-03T04:59:50.000Z,22.802734375
2023-02-03T05:09:50.055Z,22.49755859375
2023-02-03T05:19:49.854Z,22.49755859375
2023-02-03T05:29:49.837Z,22.39990234375
2023-02-03T05:39:49.732Z,22.20458984375
2023-02-03T05:49:49.636Z,22.39990234375
2023-02-03T05:59:49.555Z,22.30224609375
2023-02-03T06:09:49.537Z,22.705078125
2023-02-03T06:19:49.432Z,22.705078125
2023-02-03T06:29:49.374Z,22.49755859375
2023-02-03T06:39:49.337Z,22.20458984375
2023-02-03T06:49:49.191Z,22.0947265625
2023-02-03T06:59:49.200Z,21.8994140625
2023-02-03T07:09:49.049Z,21.7041015625
2023-02-03T07:19:49.002Z,21.7041015625
2023-02-03T07:29:48.959Z,21.49658203125
2023-02-03T07:39:48.839Z,21.49658203125
2023-02-03T07:49:48.775Z,21.39892578125
2023-02-03T07:59:48.863Z,21.30126953125
2023-02-03T08:09:48.633Z,21.20361328125
2023-02-03T08:19:48.654Z,21.10595703125
2023-02-03T08:29:48.491Z,20.99609375
2023-02-03T08:39:48.396Z,21.10595703125
2023-02-03T08:49:48.318Z,21.10595703125
2023-02-03T08:59:48.273Z,21.10595703125
2023-02-03T09:09:48.168Z,21.10595703125
2023-02-03T09:19:48.142Z,20.8984375
2023-02-03T09:29:48.027Z,20.8984375
2023-02-03T09:39:47.969Z,20.99609375
2023-02-03T09:49:47.897Z,20.99609375
2023-02-03T09:59:47.802Z,21.10595703125
2023-02-03T10:09:47.759Z,20.99609375
2023-02-03T10:19:47.718Z,20.99609375
2023-02-03T10:29:47.620Z,20.99609375
2023-02-03T10:39:47.538Z,20.99609375
2023-02-03T10:49:47.428Z,20.99609375
2023-02-03T10:59:47.382Z,20.99609375
2023-02-03T11:09:47.285Z,20.80078125
2023-02-03T11:19:47.228Z,20.8984375
2023-02-03T11:29:47.174Z,20.80078125
2023-02-03T11:39:47.084Z,20.80078125
2023-02-03T11:49:46.994Z,20.99609375
2023-02-03T11:59:46.912Z,20.99609375
2023-02-03T12:09:46.981Z,20.80078125
2023-02-03T12:19:46.800Z,20.60546875
2023-02-03T12:29:46.713Z,20.49560546875
2023-02-03T12:39:46.629Z,20.39794921875
2023-02-03T12:49:46.569Z,20.39794921875
2023-02-03T12:59:46.510Z,20.39794921875
2023-02-03T13:09:46.419Z,20.49560546875
2023-02-03T13:19:46.343Z,20.60546875
2023-02-03T13:29:46.294Z,20.703125
2023-02-03T13:39:46.215Z,20.60546875
2023-02-03T13:49:46.102Z,20.60546875
2023-02-03T13:59:46.029Z,20.49560546875
2023-02-03T14:09:45.991Z,20.39794921875
2023-02-03T14:19:45.915Z,20.39794921875
2023-02-03T14:29:45.875Z,20.39794921875
2023-02-03T14:39:45.764Z,20.39794921875
2023-02-03T14:49:45.778Z,20.39794921875
2023-02-03T14:59:45.597Z,20.39794921875
2023-02-03T15:09:45.521Z,20.39794921875
2023-02-03T15:19:45.437Z,20.30029296875
2023-02-03T15:29:45.400Z,20.30029296875
2023-02-03T15:39:45.455Z,20.30029296875
2023-02-03T15:49:45.242Z,20.30029296875
2023-02-03T15:59:45.185Z,20.30029296875
2023-02-03T16:09:45.077Z,20.20263671875
2023-02-03T16:19:45.029Z,20.30029296875
2023-02-03T16:29:44.960Z,20.30029296875
2023-02-03T16:39:45.392Z,20.30029296875
2023-02-03T16:49:44.793Z,20.30029296875
2023-02-03T16:59:44.813Z,20.39794921875
2023-02-03T17:09:44.649Z,20.39794921875
2023-02-03T17:19:44.744Z,20.20263671875
2023-02-03T17:29:44.551Z,20.20263671875
2023-02-03T17:59:44.591Z,20.10498046875
2023-02-03T18:09:44.171Z,20.10498046875
2023-02-03T18:19:46.741Z,20.20263671875
2023-02-03T18:29:44.008Z,20.30029296875
2023-02-03T18:39:43.994Z,20.49560546875
2023-02-03T18:49:43.933Z,20.60546875
2023-02-03T18:59:43.894Z,20.703125
2023-02-03T19:09:43.777Z,20.703125
2023-02-03T19:19:43.710Z,20.80078125
2023-02-03T19:29:43.656Z,20.80078125
2023-02-03T19:39:43.559Z,20.99609375
2023-02-03T19:49:43.489Z,21.10595703125
2023-02-03T19:59:43.415Z,21.30126953125
2023-02-03T20:09:43.321Z,21.49658203125
2023-02-03T20:19:43.239Z,21.39892578125
2023-02-03T20:29:43.170Z,21.59423828125
2023-02-03T20:39:43.136Z,21.7041015625
2023-02-03T20:49:43.050Z,21.9970703125
2023-02-03T20:59:42.956Z,21.9970703125
2023-02-03T21:09:42.922Z,22.39990234375
2023-02-03T21:19:42.808Z,22.998046875
2023-02-03T21:29:42.834Z,22.705078125
2023-02-03T21:39:42.661Z,22.39990234375
2023-02-03T21:49:42.620Z,22.900390625
2023-02-03T21:59:42.540Z,23.095703125
2023-02-03T22:09:42.433Z,22.802734375
2023-02-03T22:19:42.415Z,23.40087890625
2023-02-03T22:29:42.306Z,23.59619140625
2023-02-03T22:39:42.212Z,23.095703125
2023-02-03T22:49:42.179Z,22.59521484375
2023-02-03T22:59:42.212Z,23.40087890625
2023-02-03T23:09:42.035Z,23.8037109375
2023-02-03T23:19:41.930Z,23.7060546875
2023-02-03T23:29:41.968Z,24.8046875
2023-02-03T23:39:41.800Z,24.69482421875
2023-02-03T23:49:41.740Z,24.69482421875
2023-02-03T23:59:41.638Z,25.6103515625
